Time;durP1;ratioP1;P1;durP2;ratioP2;P2;SDS_P1;SDS_P2;PMS_P1;PMS_P2;Temp;Humidity;BMP_temperature;BMP_pressure;BME280_temperature;BME280_humidity;BME280_pressure;Samples;Min_cycle;Max_cycle;Signal;HPM_P1;HPM_P2
2022/07/25 04:27:39;;;;;;;;;;;27.30;79.80;;;;;;5968194;23;21031;-81
2022/07/25 04:30:08;;;;;;;;;;;27.30;79.90;;;;;;4978570;28;20036;-80
2022/07/25 04:32:34;;;;;;;;;;;27.30;79.80;;;;;;4981234;28;19932;-81
2022/07/25 04:35:01;;;;;;;;;;;27.30;79.80;;;;;;4980709;28;19927;-83
2022/07/25 04:37:28;;;;;;;;;;;27.30;79.70;;;;;;4979586;28;20016;-83
2022/07/25 04:39:54;;;;;;;;;;;27.30;79.70;;;;;;4977494;28;20001;-84
2022/07/25 04:42:21;;;;;;;;;;;27.30;79.60;;;;;;4977301;28;19993;-84
2022/07/25 04:44:48;;;;;;;;;;;27.30;79.50;;;;;;4979498;28;20412;-81
2022/07/25 04:47:16;;;;;;;;;;;27.30;79.50;;;;;;4977428;28;20017;-82
2022/07/25 04:49:42;;;;;;;;;;;27.30;79.40;;;;;;4977404;28;20012;-81
2022/07/25 04:52:09;;;;;;;;;;;27.30;79.50;;;;;;4977139;28;20021;-80
2022/07/25 04:54:36;;;;;;;;;;;27.30;79.40;;;;;;4977644;28;19930;-80
2022/07/25 04:57:03;;;;;;;;;;;27.30;79.30;;;;;;4977204;28;20013;-80
2022/07/25 04:59:30;;;;;;;;;;;27.30;79.30;;;;;;4977226;28;19930;-80
2022/07/25 05:01:57;;;;;;;;;;;27.30;79.30;;;;;;4979500;28;20024;-80
2022/07/25 05:04:25;;;;;;;;;;;27.30;79.30;;;;;;4982168;28;19926;-80
2022/07/25 05:06:52;;;;;;;;;;;27.30;79.30;;;;;;4980510;28;19926;-80
2022/07/25 05:09:18;;;;;;;;;;;27.30;79.20;;;;;;4979643;28;19926;-83
2022/07/25 05:11:45;;;;;;;;;;;27.30;79.20;;;;;;4980378;28;19926;-83
2022/07/25 05:14:12;;;;;;;;;;;27.30;79.20;;;;;;4979761;28;19926;-82
2022/07/25 05:16:38;;;;;;;;;;;27.30;79.10;;;;;;4981937;28;19932;-82
2022/07/25 05:19:05;;;;;;;;;;;27.30;79.10;;;;;;4982112;28;19933;-82
2022/07/25 05:21:33;;;;;;;;;;;27.30;79.00;;;;;;4981420;28;20002;-82
2022/07/25 05:24:00;;;;;;;;;;;27.30;79.00;;;;;;4982333;28;19933;-82
2022/07/25 05:26:26;;;;;;;;;;;27.30;79.00;;;;;;4982008;28;19952;-82
2022/07/25 05:28:53;;;;;;;;;;;27.30;79.00;;;;;;4981536;28;19958;-82
2022/07/25 05:31:20;;;;;;;;;;;27.30;79.00;;;;;;4981012;28;19932;-82
2022/07/25 05:33:46;;;;;;;;;;;27.30;78.90;;;;;;4994853;28;19973;-82
2022/07/25 05:36:13;;;;;;;;;;;27.30;78.90;;;;;;4995446;28;19972;-82
2022/07/25 05:38:41;;;;;;;;;;;27.30;78.90;;;;;;4995023;28;19929;-81
2022/07/25 05:41:08;;;;;;;;;;;27.30;78.90;;;;;;4996002;28;19969;-81
2022/07/25 05:43:34;;;;;;;;;;;27.30;78.90;;;;;;4986697;28;19926;-82
2022/07/25 05:46:01;;;;;;;;;;;27.30;78.90;;;;;;4980606;28;19932;-82
2022/07/25 05:48:28;;;;;;;;;;;27.30;79.10;;;;;;4982186;28;19949;-82
2022/07/25 05:50:57;;;;;;;;;;;27.30;79.10;;;;;;4983043;28;19926;-82
2022/07/25 05:53:25;;;;;;;;;;;27.30;79.20;;;;;;4982791;28;20428;-82
2022/07/25 05:55:53;;;;;;;;;;;27.30;79.20;;;;;;4982839;28;19933;-82
2022/07/25 05:58:20;;;;;;;;;;;27.30;79.20;;;;;;4983217;28;20373;-81
2022/07/25 06:00:49;;;;;;;;;;;27.30;79.30;;;;;;4982262;28;19961;-82
2022/07/25 06:03:17;;;;;;;;;;;27.30;79.20;;;;;;4982270;28;19930;-78
2022/07/25 06:05:44;;;;;;;;;;;27.30;79.30;;;;;;4980862;28;20338;-78
2022/07/25 06:08:12;;;;;;;;;;;27.30;79.30;;;;;;4980375;28;19926;-78
2022/07/25 06:10:39;;;;;;;;;;;27.30;79.40;;;;;;4981825;28;19957;-78
2022/07/25 06:13:08;;;;;;;;;;;27.30;79.40;;;;;;4980741;28;19926;-79
2022/07/25 06:15:35;;;;;;;;;;;27.30;79.50;;;;;;4981423;28;19969;-79
2022/07/25 06:18:02;;;;;;;;;;;27.30;79.50;;;;;;4982179;28;19926;-79
2022/07/25 06:20:29;;;;;;;;;;;27.30;79.50;;;;;;4982028;28;19926;-80
2022/07/25 06:22:56;;;;;;;;;;;27.30;79.60;;;;;;4981889;28;19930;-80
2022/07/25 06:25:23;;;;;;;;;;;27.30;79.60;;;;;;4982784;28;20374;-80
2022/07/25 06:27:50;;;;;;;;;;;27.30;79.60;;;;;;4983725;28;19926;-81
2022/07/25 06:30:19;;;;;;;;;;;27.30;79.70;;;;;;4984580;28;20283;-81
2022/07/25 06:32:46;;;;;;;;;;;27.30;79.70;;;;;;4983945;28;19958;-82
2022/07/25 06:35:13;;;;;;;;;;;27.30;79.70;;;;;;4983249;28;19926;-80
2022/07/25 06:37:40;;;;;;;;;;;27.30;79.50;;;;;;4980257;28;19933;-82
2022/07/25 06:40:08;;;;;;;;;;;27.30;79.60;;;;;;4983982;28;19953;-82
2022/07/25 06:42:38;;;;;;;;;;;27.30;79.70;;;;;;4983410;28;19926;-79
2022/07/25 06:45:05;;;;;;;;;;;27.30;79.80;;;;;;4982644;28;19998;-82
2022/07/25 06:47:34;;;;;;;;;;;27.30;79.90;;;;;;4981100;28;19926;-84
2022/07/25 06:50:01;;;;;;;;;;;27.30;79.90;;;;;;4979333;28;19927;-85
2022/07/25 06:52:27;;;;;;;;;;;27.40;80.00;;;;;;4976951;28;20297;-84
2022/07/25 06:54:54;;;;;;;;;;;27.40;80.10;;;;;;4977752;28;19926;-84
2022/07/25 06:57:21;;;;;;;;;;;27.30;80.10;;;;;;4979386;28;20020;-84
2022/07/25 06:59:48;;;;;;;;;;;27.40;80.20;;;;;;4981084;28;19949;-83
2022/07/25 07:02:15;;;;;;;;;;;27.40;80.30;;;;;;4981094;28;19973;-84
2022/07/25 07:04:44;;;;;;;;;;;27.40;80.40;;;;;;4982916;28;19926;-85
2022/07/25 07:07:11;;;;;;;;;;;27.40;80.50;;;;;;4982524;28;19927;-82
2022/07/25 07:09:38;;;;;;;;;;;27.40;80.70;;;;;;4985166;28;19930;-84
2022/07/25 07:12:05;;;;;;;;;;;27.40;80.80;;;;;;4983655;28;19926;-81
2022/07/25 07:14:32;;;;;;;;;;;27.40;81.00;;;;;;4983831;28;20029;-80
2022/07/25 07:16:59;;;;;;;;;;;27.40;81.00;;;;;;4983993;28;19926;-85
2022/07/25 07:19:27;;;;;;;;;;;27.40;81.00;;;;;;4985847;28;19926;-86
2022/07/25 07:21:56;;;;;;;;;;;27.40;81.00;;;;;;4984326;28;19950;-86
2022/07/25 07:24:23;;;;;;;;;;;27.50;81.10;;;;;;4987171;28;19994;-83
2022/07/25 07:26:49;;;;;;;;;;;27.40;81.00;;;;;;4990897;28;20243;-81
2022/07/25 07:29:16;;;;;;;;;;;27.40;81.00;;;;;;4982978;28;20338;-82
2022/07/25 07:31:43;;;;;;;;;;;27.40;81.00;;;;;;4985138;28;19933;-83
2022/07/25 07:34:10;;;;;;;;;;;27.40;81.00;;;;;;4985293;28;19926;-84
2022/07/25 07:36:38;;;;;;;;;;;27.40;80.90;;;;;;4986068;28;19927;-83
2022/07/25 07:39:06;;;;;;;;;;;27.40;81.00;;;;;;4985759;28;19933;-84
2022/07/25 07:41:33;;;;;;;;;;;27.40;81.00;;;;;;4982029;28;19926;-84
2022/07/25 07:44:00;;;;;;;;;;;27.40;81.00;;;;;;4982352;28;20376;-84
2022/07/25 07:46:26;;;;;;;;;;;27.40;80.70;;;;;;4981766;28;20421;-84
2022/07/25 07:48:53;;;;;;;;;;;27.40;80.60;;;;;;4982939;28;19926;-83
2022/07/25 07:51:20;;;;;;;;;;;27.40;80.50;;;;;;4982369;28;20067;-83
2022/07/25 07:56:32;;;;;;;;;;;27.40;80.20;;;;;;4982027;28;20346;-84
2022/07/25 07:58:58;;;;;;;;;;;27.40;80.10;;;;;;4982049;28;19930;-84
2022/07/25 08:01:25;;;;;;;;;;;27.40;79.90;;;;;;4982834;28;20024;-84
2022/07/25 08:03:52;;;;;;;;;;;27.40;79.80;;;;;;4981674;28;19926;-84
2022/07/25 08:06:19;;;;;;;;;;;27.40;79.70;;;;;;4982373;28;19926;-84
2022/07/25 08:08:45;;;;;;;;;;;27.40;79.60;;;;;;4982137;28;19961;-84
2022/07/25 08:11:12;;;;;;;;;;;27.40;79.50;;;;;;4981166;28;19926;-84
2022/07/25 08:13:40;;;;;;;;;;;27.40;79.30;;;;;;4981584;28;19973;-84
2022/07/25 08:16:07;;;;;;;;;;;27.40;79.20;;;;;;4981895;28;20433;-84
2022/07/25 08:18:33;;;;;;;;;;;27.40;79.00;;;;;;4981159;28;19926;-84
2022/07/25 08:21:02;;;;;;;;;;;27.40;78.90;;;;;;4980991;28;20385;-84
2022/07/25 08:23:30;;;;;;;;;;;27.40;78.80;;;;;;4982869;28;19981;-84
2022/07/25 08:25:57;;;;;;;;;;;27.40;78.70;;;;;;4982752;28;19949;-84
2022/07/25 08:28:23;;;;;;;;;;;27.40;78.60;;;;;;4983330;28;19930;-84
2022/07/25 08:30:52;;;;;;;;;;;27.40;78.50;;;;;;4982293;28;19927;-84
2022/07/25 08:33:19;;;;;;;;;;;27.40;78.40;;;;;;4981108;28;20013;-84
2022/07/25 08:35:46;;;;;;;;;;;27.40;78.30;;;;;;4980617;28;19926;-84
2022/07/25 08:38:13;;;;;;;;;;;27.40;78.20;;;;;;4980150;28;19952;-84
2022/07/25 08:40:39;;;;;;;;;;;27.40;78.10;;;;;;4981431;28;19926;-84
2022/07/25 08:43:09;;;;;;;;;;;27.40;78.00;;;;;;4981646;28;19926;-84
2022/07/25 08:45:36;;;;;;;;;;;27.40;77.90;;;;;;4980687;28;20356;-84
2022/07/25 08:48:05;;;;;;;;;;;27.40;77.80;;;;;;4981207;28;19926;-84
2022/07/25 08:50:31;;;;;;;;;;;27.40;77.60;;;;;;4980555;28;20001;-84
2022/07/25 08:52:58;;;;;;;;;;;27.40;77.60;;;;;;4980360;28;19969;-84
2022/07/25 08:55:27;;;;;;;;;;;27.40;77.50;;;;;;4980293;28;19933;-85
2022/07/25 08:57:54;;;;;;;;;;;27.40;77.40;;;;;;4980004;28;19934;-84
2022/07/25 09:00:21;;;;;;;;;;;27.40;77.30;;;;;;4981147;28;20345;-84
2022/07/25 09:02:52;;;;;;;;;;;27.40;77.20;;;;;;4980506;28;20084;-85
2022/07/25 09:05:20;;;;;;;;;;;27.40;77.10;;;;;;4980643;28;19930;-85
2022/07/25 09:07:47;;;;;;;;;;;27.40;77.00;;;;;;4980906;28;19985;-84
2022/07/25 09:10:14;;;;;;;;;;;27.40;76.90;;;;;;4980321;28;19927;-84
2022/07/25 09:12:41;;;;;;;;;;;27.50;76.90;;;;;;4980912;28;19926;-84
2022/07/25 09:15:09;;;;;;;;;;;27.40;76.80;;;;;;4982081;28;19926;-84
2022/07/25 09:17:36;;;;;;;;;;;27.40;76.70;;;;;;4981710;28;20024;-84
2022/07/25 09:20:03;;;;;;;;;;;27.40;77.40;;;;;;4981581;28;19973;-84
2022/07/25 09:22:31;;;;;;;;;;;27.40;76.60;;;;;;4980589;28;19926;-84
2022/07/25 09:24:58;;;;;;;;;;;27.40;76.50;;;;;;4980080;28;19926;-84
2022/07/25 09:27:25;;;;;;;;;;;27.40;76.40;;;;;;4981229;28;19965;-84
2022/07/25 09:29:51;;;;;;;;;;;27.40;76.30;;;;;;4980556;28;19926;-84
2022/07/25 09:32:19;;;;;;;;;;;27.40;76.30;;;;;;4980780;28;19926;-84
2022/07/25 09:34:47;;;;;;;;;;;27.50;76.30;;;;;;4982070;28;20018;-84
2022/07/25 09:37:14;;;;;;;;;;;27.40;76.10;;;;;;4982560;28;20396;-84
2022/07/25 09:39:43;;;;;;;;;;;27.40;76.10;;;;;;4981898;28;19976;-84
2022/07/25 09:42:16;;;;;;;;;;;27.40;76.00;;;;;;4983170;28;19930;-84
2022/07/25 09:44:43;;;;;;;;;;;27.50;76.00;;;;;;5000470;28;19942;-83
2022/07/25 09:47:10;;;;;;;;;;;27.50;75.90;;;;;;5000814;28;19941;-82
2022/07/25 09:49:40;;;;;;;;;;;27.50;75.80;;;;;;5000747;28;19917;-83
2022/07/25 09:52:07;;;;;;;;;;;27.50;75.80;;;;;;5000837;28;19910;-83
2022/07/25 09:54:34;;;;;;;;;;;27.50;75.70;;;;;;5000881;28;19942;-83
2022/07/25 09:57:02;;;;;;;;;;;27.50;75.60;;;;;;5000441;28;19960;-84
2022/07/25 09:59:29;;;;;;;;;;;27.50;75.50;;;;;;4999839;28;19965;-83
2022/07/25 10:02:00;;;;;;;;;;;27.50;75.40;;;;;;4990075;28;20303;-85
2022/07/25 10:04:37;;;;;;;;;;;27.50;75.40;;;;;;4980348;28;19932;-85
2022/07/25 10:07:08;;;;;;;;;;;27.50;75.20;;;;;;4979637;28;19989;-85
2022/07/25 10:09:40;;;;;;;;;;;27.50;75.20;;;;;;4979698;28;19933;-85
2022/07/25 10:12:09;;;;;;;;;;;27.50;75.20;;;;;;4979362;28;20389;-85
2022/07/25 10:14:37;;;;;;;;;;;27.50;75.20;;;;;;4984823;28;19997;-84
2022/07/25 10:17:04;;;;;;;;;;;27.50;75.20;;;;;;4985003;28;20017;-84
2022/07/25 10:19:41;;;;;;;;;;;27.50;75.20;;;;;;4985531;28;19997;-85
2022/07/25 10:22:08;;;;;;;;;;;27.50;75.20;;;;;;4985240;28;19926;-84
2022/07/25 10:24:36;;;;;;;;;;;27.50;75.20;;;;;;4978660;28;20374;-84
2022/07/25 10:27:07;;;;;;;;;;;27.50;75.20;;;;;;4978087;28;20384;-85
2022/07/25 10:29:35;;;;;;;;;;;27.50;75.20;;;;;;4979968;28;19933;-83
2022/07/25 10:32:06;;;;;;;;;;;27.50;75.20;;;;;;4978630;28;20021;-88
2022/07/25 10:34:33;;;;;;;;;;;27.50;75.20;;;;;;4981512;28;19926;-84
2022/07/25 10:37:08;;;;;;;;;;;27.50;75.20;;;;;;4980132;28;20029;-84
2022/07/25 10:39:37;;;;;;;;;;;27.50;75.20;;;;;;4979450;28;20017;-80
2022/07/25 10:42:05;;;;;;;;;;;27.50;75.20;;;;;;4976671;28;20021;-83
2022/07/25 10:44:41;;;;;;;;;;;27.50;75.20;;;;;;4975842;28;20021;-86
2022/07/25 10:47:09;;;;;;;;;;;27.50;75.20;;;;;;4975284;28;20405;-85
2022/07/25 10:49:37;;;;;;;;;;;27.50;75.20;;;;;;4975933;28;19926;-85
2022/07/25 10:52:04;;;;;;;;;;;27.60;75.20;;;;;;4976655;28;19926;-84
2022/07/25 10:54:34;;;;;;;;;;;27.50;75.20;;;;;;4980083;28;19933;-85
2022/07/25 10:57:01;;;;;;;;;;;27.60;75.20;;;;;;4980431;28;19926;-80
2022/07/25 10:59:29;;;;;;;;;;;27.60;75.20;;;;;;4985622;28;19926;-86
2022/07/25 11:01:57;;;;;;;;;;;27.60;75.20;;;;;;4994875;28;19926;-85
2022/07/25 11:04:24;;;;;;;;;;;27.60;75.30;;;;;;4984728;28;19965;-83
2022/07/25 11:06:51;;;;;;;;;;;27.60;75.30;;;;;;4985457;28;19982;-80
2022/07/25 11:09:19;;;;;;;;;;;27.60;75.30;;;;;;4984258;28;19926;-80
2022/07/25 11:11:47;;;;;;;;;;;27.60;75.20;;;;;;4984863;28;19930;-80
2022/07/25 11:14:15;;;;;;;;;;;27.60;75.30;;;;;;4984855;28;19930;-80
2022/07/25 11:16:42;;;;;;;;;;;27.60;75.20;;;;;;4983095;28;20298;-79
2022/07/25 11:19:17;;;;;;;;;;;27.60;75.40;;;;;;4983492;28;19926;-79
2022/07/25 11:21:47;;;;;;;;;;;27.70;75.60;;;;;;4985953;28;19948;-83
2022/07/25 11:24:13;;;;;;;;;;;27.70;75.80;;;;;;4984723;28;19934;-85
2022/07/25 11:26:47;;;;;;;;;;;27.70;75.90;;;;;;4982376;28;20001;-85
2022/07/25 11:29:18;;;;;;;;;;;27.70;76.00;;;;;;4984145;28;19965;-80
2022/07/25 11:31:50;;;;;;;;;;;27.70;76.30;;;;;;4983742;28;19926;-80
2022/07/25 11:34:19;;;;;;;;;;;27.70;76.40;;;;;;4982887;28;19965;-79
2022/07/25 11:36:46;;;;;;;;;;;27.70;76.50;;;;;;4984340;28;19964;-84
2022/07/25 11:39:12;;;;;;;;;;;27.70;76.80;;;;;;4980156;28;19926;-84
2022/07/25 11:41:39;;;;;;;;;;;27.80;77.20;;;;;;4979608;28;19926;-84
2022/07/25 11:44:06;;;;;;;;;;;27.80;77.40;;;;;;4978372;28;19926;-84
2022/07/25 11:46:41;;;;;;;;;;;27.80;77.70;;;;;;4978320;28;20453;-85
2022/07/25 11:49:08;;;;;;;;;;;27.80;77.80;;;;;;4978340;28;19976;-85
2022/07/25 11:51:37;;;;;;;;;;;27.80;78.00;;;;;;4978675;28;20363;-85
2022/07/25 11:54:07;;;;;;;;;;;27.80;78.10;;;;;;4978174;28;19926;-85
2022/07/25 11:56:37;;;;;;;;;;;27.90;78.40;;;;;;4978545;28;20361;-84
2022/07/25 11:59:03;;;;;;;;;;;27.90;78.50;;;;;;4978725;28;20008;-84
2022/07/25 12:01:34;;;;;;;;;;;27.90;78.70;;;;;;4979494;28;19952;-84
2022/07/25 12:04:07;;;;;;;;;;;27.90;78.80;;;;;;4981504;28;19930;-83
2022/07/25 12:06:34;;;;;;;;;;;27.90;78.90;;;;;;4983125;28;19994;-81
2022/07/25 12:09:10;;;;;;;;;;;27.90;78.90;;;;;;4983643;28;19926;-81
2022/07/25 12:11:37;;;;;;;;;;;27.80;79.00;;;;;;4980901;28;19933;-84
2022/07/25 12:14:04;;;;;;;;;;;27.80;79.00;;;;;;4979385;28;19933;-84
2022/07/25 12:16:31;;;;;;;;;;;27.80;79.00;;;;;;4982142;28;19933;-81
2022/07/25 12:18:58;;;;;;;;;;;27.80;79.10;;;;;;4982973;28;19926;-80
2022/07/25 12:21:25;;;;;;;;;;;27.80;79.10;;;;;;4985046;28;20019;-84
2022/07/25 12:23:52;;;;;;;;;;;27.80;79.20;;;;;;4985767;28;19927;-84
2022/07/25 12:26:20;;;;;;;;;;;27.80;79.20;;;;;;4983748;28;20016;-79
2022/07/25 12:28:47;;;;;;;;;;;27.80;79.30;;;;;;4981799;28;19933;-80
2022/07/25 12:31:14;;;;;;;;;;;27.80;79.30;;;;;;4981638;28;19926;-85
2022/07/25 12:33:40;;;;;;;;;;;27.80;79.40;;;;;;4980746;28;20386;-81
2022/07/25 12:36:08;;;;;;;;;;;27.80;79.50;;;;;;4982257;28;19926;-82
2022/07/25 12:38:34;;;;;;;;;;;27.80;79.40;;;;;;4982156;28;20020;-82
2022/07/25 12:41:01;;;;;;;;;;;27.80;79.40;;;;;;4982314;28;19926;-81
2022/07/25 12:43:29;;;;;;;;;;;27.80;79.40;;;;;;4982019;28;19958;-82
2022/07/25 12:45:56;;;;;;;;;;;27.80;79.40;;;;;;4982641;28;20239;-79
2022/07/25 12:48:23;;;;;;;;;;;27.80;79.30;;;;;;4980002;28;20294;-79
2022/07/25 12:50:52;;;;;;;;;;;27.80;79.30;;;;;;4978073;28;20422;-79
2022/07/25 12:53:18;;;;;;;;;;;27.80;79.20;;;;;;4979542;28;19981;-79
2022/07/25 12:55:45;;;;;;;;;;;27.80;79.20;;;;;;4978361;28;20457;-78
2022/07/25 12:58:16;;;;;;;;;;;27.80;79.30;;;;;;4977307;28;20409;-76
2022/07/25 13:00:45;;;;;;;;;;;27.80;79.30;;;;;;4978401;28;19926;-77
2022/07/25 13:03:13;;;;;;;;;;;27.80;79.40;;;;;;4977747;28;19926;-77
2022/07/25 13:05:39;;;;;;;;;;;27.80;79.40;;;;;;4977699;28;19926;-77
2022/07/25 13:08:06;;;;;;;;;;;27.80;79.30;;;;;;4977162;28;19927;-77
2022/07/25 13:10:33;;;;;;;;;;;27.80;79.20;;;;;;4977208;28;20274;-78
2022/07/25 13:13:05;;;;;;;;;;;27.80;79.10;;;;;;4977166;28;20032;-79
2022/07/25 13:15:38;;;;;;;;;;;27.80;79.10;;;;;;4975647;28;19962;-78
2022/07/25 13:18:06;;;;;;;;;;;27.80;79.00;;;;;;4976713;28;19930;-79
2022/07/25 13:20:34;;;;;;;;;;;27.80;79.00;;;;;;4976223;28;20385;-78
2022/07/25 13:23:01;;;;;;;;;;;27.80;78.90;;;;;;4978309;28;19930;-78
2022/07/25 13:25:28;;;;;;;;;;;27.80;78.80;;;;;;4980997;28;19992;-79
2022/07/25 13:27:55;;;;;;;;;;;27.80;78.80;;;;;;4980809;28;19926;-79
2022/07/25 13:30:22;;;;;;;;;;;27.80;78.70;;;;;;4978169;28;19930;-79
2022/07/25 13:32:48;;;;;;;;;;;27.80;78.60;;;;;;4976455;28;19933;-78
2022/07/25 13:35:17;;;;;;;;;;;27.80;78.60;;;;;;4976609;28;19985;-78
2022/07/25 13:37:43;;;;;;;;;;;27.80;78.50;;;;;;4981420;28;19926;-79
2022/07/25 13:40:10;;;;;;;;;;;27.80;78.40;;;;;;4980951;28;19930;-81
2022/07/25 13:42:37;;;;;;;;;;;27.80;78.30;;;;;;4982800;28;19961;-83
2022/07/25 13:45:04;;;;;;;;;;;27.80;78.30;;;;;;4981111;28;20013;-78
2022/07/25 13:47:31;;;;;;;;;;;27.80;78.20;;;;;;4980758;28;20020;-80
2022/07/25 13:49:58;;;;;;;;;;;27.80;78.20;;;;;;4982173;28;19926;-80
2022/07/25 13:52:26;;;;;;;;;;;27.80;78.10;;;;;;4982047;28;19926;-81
2022/07/25 13:54:53;;;;;;;;;;;27.80;78.00;;;;;;4981588;28;20012;-82
2022/07/25 13:57:21;;;;;;;;;;;27.80;78.00;;;;;;4981309;28;19926;-80
2022/07/25 13:59:48;;;;;;;;;;;27.80;77.90;;;;;;4981041;28;19980;-80
2022/07/25 14:02:15;;;;;;;;;;;27.80;77.80;;;;;;4981134;28;19958;-81
2022/07/25 14:04:41;;;;;;;;;;;27.80;77.80;;;;;;4982162;28;19969;-82
2022/07/25 14:07:08;;;;;;;;;;;27.80;77.70;;;;;;4982603;28;20326;-81
2022/07/25 14:09:36;;;;;;;;;;;27.80;77.60;;;;;;4979731;28;19958;-79
2022/07/25 14:12:03;;;;;;;;;;;27.80;77.70;;;;;;4980619;28;19989;-80
2022/07/25 14:14:30;;;;;;;;;;;27.80;77.60;;;;;;4983814;28;20017;-81
2022/07/25 14:16:57;;;;;;;;;;;27.80;77.70;;;;;;4981099;28;20017;-81
2022/07/25 14:19:24;;;;;;;;;;;27.80;77.70;;;;;;4982718;28;20020;-81
2022/07/25 14:21:50;;;;;;;;;;;27.80;77.70;;;;;;4982902;28;19926;-82
2022/07/25 14:24:17;;;;;;;;;;;27.80;77.70;;;;;;4982243;28;19998;-81
2022/07/25 14:26:45;;;;;;;;;;;27.90;77.70;;;;;;4979968;28;20362;-81
2022/07/25 14:29:12;;;;;;;;;;;27.80;77.70;;;;;;4979515;28;19930;-81
2022/07/25 14:31:39;;;;;;;;;;;27.90;77.70;;;;;;4978941;28;20017;-81
2022/07/25 14:34:06;;;;;;;;;;;27.90;77.70;;;;;;4979662;28;19961;-80
2022/07/25 14:36:33;;;;;;;;;;;27.90;77.70;;;;;;4979763;28;20362;-82
2022/07/25 14:39:01;;;;;;;;;;;27.90;77.70;;;;;;4983968;28;19932;-81
2022/07/25 14:41:28;;;;;;;;;;;27.90;77.90;;;;;;4982878;28;20365;-82
2022/07/25 14:43:56;;;;;;;;;;;27.90;77.90;;;;;;4984744;28;19930;-80
2022/07/25 14:46:23;;;;;;;;;;;27.90;77.90;;;;;;4984628;28;19926;-81
2022/07/25 14:48:51;;;;;;;;;;;27.90;77.80;;;;;;4979645;28;20016;-80
2022/07/25 14:51:18;;;;;;;;;;;27.90;77.80;;;;;;4979405;28;19925;-82
2022/07/25 14:53:45;;;;;;;;;;;27.90;77.80;;;;;;4983336;28;20021;-80
2022/07/25 14:56:12;;;;;;;;;;;27.90;77.70;;;;;;4981015;28;19969;-79
2022/07/25 14:58:39;;;;;;;;;;;27.90;77.70;;;;;;4982370;28;19930;-79
2022/07/25 15:01:08;;;;;;;;;;;27.90;77.60;;;;;;4982752;28;19926;-80
2022/07/25 15:03:34;;;;;;;;;;;27.90;77.60;;;;;;4982363;28;19977;-80
2022/07/25 15:06:02;;;;;;;;;;;27.90;77.50;;;;;;4980186;28;19969;-79
2022/07/25 15:08:28;;;;;;;;;;;27.90;77.50;;;;;;4981111;28;19926;-79
2022/07/25 15:10:55;;;;;;;;;;;27.90;77.40;;;;;;4980539;28;19926;-78
2022/07/25 15:13:22;;;;;;;;;;;27.90;77.30;;;;;;4977684;28;19945;-79
2022/07/25 15:15:49;;;;;;;;;;;27.90;77.30;;;;;;4977582;28;20024;-79
2022/07/25 15:18:17;;;;;;;;;;;27.90;77.20;;;;;;4981956;28;19993;-80
2022/07/25 15:20:44;;;;;;;;;;;27.90;77.10;;;;;;4983522;28;19985;-80
2022/07/25 15:23:13;;;;;;;;;;;27.90;77.00;;;;;;4983327;28;19969;-81
2022/07/25 15:25:40;;;;;;;;;;;27.90;76.90;;;;;;4984303;28;19929;-78
2022/07/25 15:28:07;;;;;;;;;;;27.90;76.80;;;;;;4983816;28;20353;-81
2022/07/25 15:30:35;;;;;;;;;;;27.90;76.70;;;;;;4981778;28;20002;-78
2022/07/25 15:33:01;;;;;;;;;;;27.90;76.70;;;;;;4979724;28;20020;-84
2022/07/25 15:35:29;;;;;;;;;;;27.90;76.60;;;;;;4979951;28;20016;-88
2022/07/25 15:37:57;;;;;;;;;;;27.90;76.50;;;;;;4974767;28;19926;-85
2022/07/25 15:40:24;;;;;;;;;;;27.90;76.30;;;;;;4980106;28;20381;-85
2022/07/25 15:42:51;;;;;;;;;;;27.90;76.20;;;;;;4978792;28;20017;-81
2022/07/25 15:45:19;;;;;;;;;;;27.90;76.10;;;;;;4978979;28;19972;-81
2022/07/25 15:47:46;;;;;;;;;;;27.90;75.90;;;;;;4979187;28;19926;-81
2022/07/25 15:50:13;;;;;;;;;;;27.90;75.70;;;;;;4981030;28;20020;-82
2022/07/25 15:52:41;;;;;;;;;;;27.90;75.60;;;;;;4980780;28;19948;-81
2022/07/25 15:55:08;;;;;;;;;;;27.90;75.50;;;;;;4980618;28;19926;-82
2022/07/25 15:57:34;;;;;;;;;;;27.90;75.50;;;;;;4978261;28;20295;-81
2022/07/25 16:00:01;;;;;;;;;;;27.90;75.50;;;;;;4979028;28;19996;-81
2022/07/25 16:02:28;;;;;;;;;;;27.90;75.50;;;;;;4979064;28;19926;-81
2022/07/25 16:04:54;;;;;;;;;;;27.90;75.50;;;;;;4978515;28;20008;-81
2022/07/25 16:07:21;;;;;;;;;;;27.90;75.50;;;;;;4978301;28;20005;-81
2022/07/25 16:09:50;;;;;;;;;;;27.90;75.50;;;;;;4978389;28;19926;-81
2022/07/25 16:12:21;;;;;;;;;;;27.90;75.50;;;;;;4978122;28;19926;-81
2022/07/25 16:14:48;;;;;;;;;;;27.90;75.50;;;;;;4978598;28;19933;-82
2022/07/25 16:17:14;;;;;;;;;;;27.90;75.40;;;;;;4978280;28;20059;-81
2022/07/25 16:19:41;;;;;;;;;;;27.90;75.20;;;;;;4982186;28;19930;-82
2022/07/25 16:22:08;;;;;;;;;;;27.80;75.10;;;;;;4981403;28;19933;-82
2022/07/25 16:24:36;;;;;;;;;;;27.80;75.00;;;;;;4982432;28;19926;-81
2022/07/25 16:27:04;;;;;;;;;;;27.90;75.00;;;;;;4982034;28;19937;-80
2022/07/25 16:29:31;;;;;;;;;;;27.80;74.60;;;;;;4980944;28;20374;-81
2022/07/25 16:31:57;;;;;;;;;;;27.80;74.10;;;;;;4989367;28;20424;-83
2022/07/25 16:34:27;;;;;;;;;;;27.80;73.90;;;;;;4988899;28;19934;-84
2022/07/25 16:36:53;;;;;;;;;;;27.80;73.70;;;;;;4986319;28;19962;-86
2022/07/25 16:39:21;;;;;;;;;;;27.80;73.30;;;;;;4986072;28;20021;-86
2022/07/25 16:41:48;;;;;;;;;;;27.80;73.00;;;;;;4980053;28;19926;-85
2022/07/25 16:44:17;;;;;;;;;;;27.80;72.60;;;;;;4977819;28;19926;-85
2022/07/25 16:46:43;;;;;;;;;;;27.80;72.00;;;;;;4977374;28;19937;-85
2022/07/25 16:49:12;;;;;;;;;;;27.80;71.60;;;;;;4977760;28;19926;-84
2022/07/25 16:51:38;;;;;;;;;;;27.90;71.20;;;;;;4977574;28;19933;-86
2022/07/25 16:54:05;;;;;;;;;;;27.90;70.80;;;;;;4977468;28;20417;-84
2022/07/25 16:56:32;;;;;;;;;;;27.90;70.30;;;;;;4979025;28;19932;-85
2022/07/25 16:58:59;;;;;;;;;;;27.90;69.80;;;;;;4979653;28;19926;-83
2022/07/25 17:01:29;;;;;;;;;;;27.90;69.50;;;;;;4978332;28;19933;-84
2022/07/25 17:03:56;;;;;;;;;;;27.90;69.50;;;;;;4978273;28;19926;-83
2022/07/25 17:06:22;;;;;;;;;;;27.90;68.80;;;;;;4977799;28;19926;-83
2022/07/25 17:08:49;;;;;;;;;;;27.90;68.40;;;;;;4978279;28;19932;-83
2022/07/25 17:11:16;;;;;;;;;;;27.90;67.90;;;;;;4979271;28;20449;-83
2022/07/25 17:13:43;;;;;;;;;;;27.90;67.40;;;;;;4979893;28;20362;-83
2022/07/25 17:16:09;;;;;;;;;;;27.90;67.00;;;;;;4978628;28;19926;-84
2022/07/25 17:18:38;;;;;;;;;;;27.90;66.60;;;;;;4978138;28;19926;-83
2022/07/25 17:21:05;;;;;;;;;;;27.90;66.10;;;;;;4977206;28;20375;-84
2022/07/25 17:23:32;;;;;;;;;;;27.90;65.60;;;;;;4977419;28;20024;-84
2022/07/25 17:25:59;;;;;;;;;;;27.90;65.10;;;;;;4978677;28;20013;-83
2022/07/25 17:28:25;;;;;;;;;;;27.90;64.70;;;;;;4978331;28;20421;-84
2022/07/25 17:30:52;;;;;;;;;;;27.90;64.20;;;;;;4977709;28;19926;-84
2022/07/25 17:33:19;;;;;;;;;;;27.90;63.70;;;;;;4978191;28;19926;-86
2022/07/25 17:35:47;;;;;;;;;;;27.90;63.30;;;;;;4977448;28;19926;-82
2022/07/25 17:38:13;;;;;;;;;;;27.90;63.30;;;;;;4977989;28;20409;-84
2022/07/25 17:40:40;;;;;;;;;;;27.90;63.00;;;;;;4978582;28;19927;-85
2022/07/25 17:43:07;;;;;;;;;;;27.90;62.70;;;;;;4977298;28;19933;-85
2022/07/25 17:45:34;;;;;;;;;;;27.90;62.30;;;;;;4977793;28;19984;-86
2022/07/25 17:48:00;;;;;;;;;;;27.90;62.10;;;;;;4975857;28;19981;-87
2022/07/25 17:50:28;;;;;;;;;;;27.90;61.80;;;;;;4976238;28;19926;-85
2022/07/25 17:52:58;;;;;;;;;;;27.90;61.50;;;;;;4977991;28;20017;-81
2022/07/25 17:55:25;;;;;;;;;;;27.90;61.30;;;;;;4977964;28;19926;-80
2022/07/25 17:57:53;;;;;;;;;;;27.90;61.10;;;;;;4977643;28;19926;-83
2022/07/25 18:00:21;;;;;;;;;;;27.90;60.90;;;;;;4978310;28;20253;-82
2022/07/25 18:02:48;;;;;;;;;;;27.90;60.60;;;;;;4977423;28;20370;-83
2022/07/25 18:05:15;;;;;;;;;;;27.90;60.50;;;;;;4978377;28;19927;-83
2022/07/25 18:07:44;;;;;;;;;;;27.90;60.30;;;;;;4978497;28;20017;-83
2022/07/25 18:10:13;;;;;;;;;;;27.90;60.10;;;;;;4978516;28;20364;-82
2022/07/25 18:12:39;;;;;;;;;;;27.90;59.90;;;;;;4980392;28;20017;-82
2022/07/25 18:15:06;;;;;;;;;;;27.90;59.80;;;;;;4978854;28;19926;-82
2022/07/25 18:17:33;;;;;;;;;;;27.90;59.70;;;;;;4977798;28;20301;-82
2022/07/25 18:20:00;;;;;;;;;;;27.90;59.50;;;;;;4977665;28;20366;-82
2022/07/25 18:22:26;;;;;;;;;;;27.80;59.30;;;;;;4979382;28;20033;-82
2022/07/25 18:24:53;;;;;;;;;;;27.90;59.30;;;;;;4979112;28;20037;-82
2022/07/25 18:27:21;;;;;;;;;;;27.80;59.10;;;;;;4977565;28;20009;-82
2022/07/25 18:29:48;;;;;;;;;;;27.90;59.00;;;;;;4977738;28;19985;-82
2022/07/25 18:32:14;;;;;;;;;;;27.80;58.80;;;;;;4978717;28;20030;-80
2022/07/25 18:34:41;;;;;;;;;;;27.80;58.70;;;;;;4978662;28;19930;-80
2022/07/25 18:37:08;;;;;;;;;;;27.80;58.60;;;;;;4978900;28;19926;-80
2022/07/25 18:39:34;;;;;;;;;;;27.80;58.50;;;;;;4979187;28;19973;-80
2022/07/25 18:42:01;;;;;;;;;;;27.80;58.40;;;;;;4979364;28;19930;-82
2022/07/25 18:44:31;;;;;;;;;;;27.80;58.20;;;;;;4979038;28;20037;-81
2022/07/25 18:46:57;;;;;;;;;;;27.80;58.10;;;;;;4979479;28;19973;-81